sensor_id;sensor_type;location;lat;lon;timestamp;pressure;altitude;pressure_sealevel;temperature;humidity
78562;BME280;68963;52.138;5.446;2023-04-09T00:01:34;102809.78;;;8.57;97.72
78562;BME280;68963;52.138;5.446;2023-04-09T00:04:01;102805.34;;;8.58;97.99
78562;BME280;68963;52.138;5.446;2023-04-09T00:06:28;102809.66;;;8.59;97.88
78562;BME280;68963;52.138;5.446;2023-04-09T00:08:54;102805.94;;;8.61;97.37
78562;BME280;68963;52.138;5.446;2023-04-09T00:11:21;102809.53;;;8.60;97.29
78562;BME280;68963;52.138;5.446;2023-04-09T00:13:47;102806.22;;;8.58;97.36
78562;BME280;68963;52.138;5.446;2023-04-09T00:16:14;102802.88;;;8.56;97.47
78562;BME280;68963;52.138;5.446;2023-04-09T00:18:40;102805.50;;;8.56;97.50
78562;BME280;68963;52.138;5.446;2023-04-09T00:21:07;102807.28;;;8.56;97.63
78562;BME280;68963;52.138;5.446;2023-04-09T00:23:34;102804.66;;;8.56;97.81
78562;BME280;68963;52.138;5.446;2023-04-09T00:26:01;102802.03;;;8.56;97.83
78562;BME280;68963;52.138;5.446;2023-04-09T00:28:28;102802.03;;;8.56;98.19
78562;BME280;68963;52.138;5.446;2023-04-09T00:30:54;102800.38;;;8.55;98.19
78562;BME280;68963;52.138;5.446;2023-04-09T00:33:21;102795.13;;;8.55;98.23
78562;BME280;68963;52.138;5.446;2023-04-09T00:35:47;102794.84;;;8.58;98.14
78562;BME280;68963;52.138;5.446;2023-04-09T00:38:14;102797.38;;;8.59;98.26
78562;BME280;68963;52.138;5.446;2023-04-09T00:40:40;102789.47;;;8.59;98.23
78562;BME280;68963;52.138;5.446;2023-04-09T00:43:07;102793.19;;;8.57;98.49
78562;BME280;68963;52.138;5.446;2023-04-09T00:45:34;102792.50;;;8.55;98.66
78562;BME280;68963;52.138;5.446;2023-04-09T00:48:01;102790.81;;;8.54;98.44
78562;BME280;68963;52.138;5.446;2023-04-09T00:50:28;102785.69;;;8.52;98.53
78562;BME280;68963;52.138;5.446;2023-04-09T00:52:55;102786.53;;;8.53;98.26
78562;BME280;68963;52.138;5.446;2023-04-09T00:55:21;102787.50;;;8.52;98.28
78562;BME280;68963;52.138;5.446;2023-04-09T00:57:48;102780.28;;;8.54;98.21
78562;BME280;68963;52.138;5.446;2023-04-09T01:00:15;102783.91;;;8.53;98.54
78562;BME280;68963;52.138;5.446;2023-04-09T01:02:42;102784.03;;;8.51;98.56
78562;BME280;68963;52.138;5.446;2023-04-09T01:05:10;102781.50;;;8.50;98.66
78562;BME280;68963;52.138;5.446;2023-04-09T01:10:37;102777.09;;;8.50;98.60
78562;BME280;68963;52.138;5.446;2023-04-09T01:13:13;102775.31;;;8.51;98.72
78562;BME280;68963;52.138;5.446;2023-04-09T01:15:48;102777.94;;;8.51;98.94
78562;BME280;68963;52.138;5.446;2023-04-09T01:18:23;102770.63;;;8.54;99.08
78562;BME280;68963;52.138;5.446;2023-04-09T01:21:02;102771.47;;;8.55;98.85
78562;BME280;68963;52.138;5.446;2023-04-09T01:23:46;102770.63;;;8.54;98.86
78562;BME280;68963;52.138;5.446;2023-04-09T01:28:46;102761.41;;;8.60;98.85
78562;BME280;68963;52.138;5.446;2023-04-09T01:31:17;102769.28;;;8.60;98.87
78562;BME280;68963;52.138;5.446;2023-04-09T01:33:45;102763.47;;;8.56;98.42
78562;BME280;68963;52.138;5.446;2023-04-09T01:36:13;102772.41;;;8.54;98.15
78562;BME280;68963;52.138;5.446;2023-04-09T01:38:41;102764.81;;;8.51;98.36
78562;BME280;68963;52.138;5.446;2023-04-09T01:41:13;102763.97;;;8.50;98.68
78562;BME280;68963;52.138;5.446;2023-04-09T01:43:41;102759.56;;;8.51;98.59
78562;BME280;68963;52.138;5.446;2023-04-09T01:46:08;102758.72;;;8.50;98.62
78562;BME280;68963;52.138;5.446;2023-04-09T01:48:36;102759.44;;;8.52;99.13
78562;BME280;68963;52.138;5.446;2023-04-09T01:51:03;102752.75;;;8.48;98.92
78562;BME280;68963;52.138;5.446;2023-04-09T01:53:30;102758.13;;;8.46;99.07
78562;BME280;68963;52.138;5.446;2023-04-09T01:55:58;102754.66;;;8.46;99.35
78562;BME280;68963;52.138;5.446;2023-04-09T01:58:26;102748.72;;;8.44;99.52
78562;BME280;68963;52.138;5.446;2023-04-09T02:01:04;102759.91;;;8.46;99.39
78562;BME280;68963;52.138;5.446;2023-04-09T02:03:39;102752.03;;;8.46;99.34
78562;BME280;68963;52.138;5.446;2023-04-09T02:06:14;102741.44;;;8.48;99.18
78562;BME280;68963;52.138;5.446;2023-04-09T02:08:43;102755.16;;;8.51;99.36
78562;BME280;68963;52.138;5.446;2023-04-09T02:11:12;102754.03;;;8.54;99.34
78562;BME280;68963;52.138;5.446;2023-04-09T02:13:41;102754.31;;;8.51;99.63
78562;BME280;68963;52.138;5.446;2023-04-09T02:16:10;102751.78;;;8.49;99.56
78562;BME280;68963;52.138;5.446;2023-04-09T02:18:37;102745.84;;;8.47;99.39
78562;BME280;68963;52.138;5.446;2023-04-09T02:21:04;102745.84;;;8.47;99.48
78562;BME280;68963;52.138;5.446;2023-04-09T02:23:31;102736.44;;;8.44;99.64
78562;BME280;68963;52.138;5.446;2023-04-09T02:25:58;102738.91;;;8.46;99.58
78562;BME280;68963;52.138;5.446;2023-04-09T02:28:25;102734.50;;;8.46;99.62
78562;BME280;68963;52.138;5.446;2023-04-09T02:30:51;102731.19;;;8.44;99.52
78562;BME280;68963;52.138;5.446;2023-04-09T02:33:18;102738.22;;;8.44;99.76
78562;BME280;68963;52.138;5.446;2023-04-09T02:35:44;102729.63;;;8.42;99.97
78562;BME280;68963;52.138;5.446;2023-04-09T02:38:11;102724.63;;;8.39;99.96
78562;BME280;68963;52.138;5.446;2023-04-09T02:40:39;102729.75;;;8.40;100.00
78562;BME280;68963;52.138;5.446;2023-04-09T02:43:07;102733.09;;;8.42;99.95
78562;BME280;68963;52.138;5.446;2023-04-09T02:45:34;102727.81;;;8.42;100.00
78562;BME280;68963;52.138;5.446;2023-04-09T02:48:00;102727.81;;;8.42;99.87
78562;BME280;68963;52.138;5.446;2023-04-09T02:50:27;102730.34;;;8.44;100.00
78562;BME280;68963;52.138;5.446;2023-04-09T02:52:54;102725.94;;;8.44;99.77
78562;BME280;68963;52.138;5.446;2023-04-09T02:55:21;102730.47;;;8.42;99.66
78562;BME280;68963;52.138;5.446;2023-04-09T02:57:47;102726.88;;;8.43;99.83
78562;BME280;68963;52.138;5.446;2023-04-09T03:00:14;102718.28;;;8.41;99.89
78562;BME280;68963;52.138;5.446;2023-04-09T03:02:41;102722.72;;;8.41;99.69
78562;BME280;68963;52.138;5.446;2023-04-09T03:05:08;102721.75;;;8.42;99.68
78562;BME280;68963;52.138;5.446;2023-04-09T03:07:34;102714.69;;;8.42;99.75
78562;BME280;68963;52.138;5.446;2023-04-09T03:10:01;102725.09;;;8.44;99.70
78562;BME280;68963;52.138;5.446;2023-04-09T03:12:27;102721.50;;;8.45;99.65
78562;BME280;68963;52.138;5.446;2023-04-09T03:14:54;102717.78;;;8.48;99.96
78562;BME280;68963;52.138;5.446;2023-04-09T03:17:20;102715.16;;;8.48;99.56
78562;BME280;68963;52.138;5.446;2023-04-09T03:19:50;102723.72;;;8.50;99.72
78562;BME280;68963;52.138;5.446;2023-04-09T03:22:16;102721.00;;;8.51;99.58
78562;BME280;68963;52.138;5.446;2023-04-09T03:24:43;102720.16;;;8.51;99.60
78562;BME280;68963;52.138;5.446;2023-04-09T03:27:09;102721.00;;;8.51;99.32
78562;BME280;68963;52.138;5.446;2023-04-09T03:29:35;102709.66;;;8.51;99.10
78562;BME280;68963;52.138;5.446;2023-04-09T03:32:02;102708.81;;;8.50;99.45
78562;BME280;68963;52.138;5.446;2023-04-09T03:34:28;102717.66;;;8.49;99.33
78562;BME280;68963;52.138;5.446;2023-04-09T03:36:55;102708.22;;;8.46;99.17
78562;BME280;68963;52.138;5.446;2023-04-09T03:39:21;102701.31;;;8.45;99.07
78562;BME280;68963;52.138;5.446;2023-04-09T03:41:48;102702.16;;;8.46;99.08
78562;BME280;68963;52.138;5.446;2023-04-09T03:44:14;102703.94;;;8.45;99.41
78562;BME280;68963;52.138;5.446;2023-04-09T03:46:41;102705.75;;;8.45;99.59
78562;BME280;68963;52.138;5.446;2023-04-09T03:49:08;102702.28;;;8.44;99.81
78562;BME280;68963;52.138;5.446;2023-04-09T03:51:34;102701.47;;;8.44;99.71
78562;BME280;68963;52.138;5.446;2023-04-09T03:54:01;102696.31;;;8.42;99.92
78562;BME280;68963;52.138;5.446;2023-04-09T03:56:28;102698.13;;;8.42;100.00
78562;BME280;68963;52.138;5.446;2023-04-09T03:58:54;102691.78;;;8.44;100.00
78562;BME280;68963;52.138;5.446;2023-04-09T04:01:21;102689.00;;;8.46;100.00
78562;BME280;68963;52.138;5.446;2023-04-09T04:03:47;102693.19;;;8.49;100.00
78562;BME280;68963;52.138;5.446;2023-04-09T04:06:14;102693.34;;;8.47;100.00
78562;BME280;68963;52.138;5.446;2023-04-09T04:08:40;102693.34;;;8.47;100.00
78562;BME280;68963;52.138;5.446;2023-04-09T04:11:07;102697.63;;;8.48;99.90
78562;BME280;68963;52.138;5.446;2023-04-09T04:13:33;102702.41;;;8.43;99.69
78562;BME280;68963;52.138;5.446;2023-04-09T04:16:00;102702.78;;;8.38;100.00
78562;BME280;68963;52.138;5.446;2023-04-09T04:18:27;102686.31;;;8.36;99.84
78562;BME280;68963;52.138;5.446;2023-04-09T04:20:53;102687.13;;;8.37;100.00
78562;BME280;68963;52.138;5.446;2023-04-09T04:23:19;102697.53;;;8.38;100.00
78562;BME280;68963;52.138;5.446;2023-04-09T04:25:46;102685.22;;;8.39;100.00
78562;BME280;68963;52.138;5.446;2023-04-09T04:28:12;102683.44;;;8.39;100.00
78562;BME280;68963;52.138;5.446;2023-04-09T04:30:42;102686.94;;;8.40;100.00
78562;BME280;68963;52.138;5.446;2023-04-09T04:33:09;102687.59;;;8.42;100.00
78562;BME280;68963;52.138;5.446;2023-04-09T04:35:35;102682.59;;;8.39;100.00
78562;BME280;68963;52.138;5.446;2023-04-09T04:38:02;102686.19;;;8.38;100.00
78562;BME280;68963;52.138;5.446;2023-04-09T04:40:28;102687.25;;;8.35;100.00
78562;BME280;68963;52.138;5.446;2023-04-09T04:42:55;102694.19;;;8.36;99.19
78562;BME280;68963;52.138;5.446;2023-04-09T04:45:21;102695.13;;;8.35;98.90
78562;BME280;68963;52.138;5.446;2023-04-09T04:47:48;102693.25;;;8.37;98.58
78562;BME280;68963;52.138;5.446;2023-04-09T04:50:14;102692.19;;;8.40;98.65
78562;BME280;68963;52.138;5.446;2023-04-09T04:52:41;102687.84;;;8.39;97.99
78562;BME280;68963;52.138;5.446;2023-04-09T04:55:07;102687.13;;;8.37;98.43
78562;BME280;68963;52.138;5.446;2023-04-09T04:57:34;102688.09;;;8.36;98.57
78562;BME280;68963;52.138;5.446;2023-04-09T05:00:00;102691.56;;;8.36;98.99
78562;BME280;68963;52.138;5.446;2023-04-09T05:02:27;102685.38;;;8.37;98.99
78562;BME280;68963;52.138;5.446;2023-04-09T05:04:53;102685.38;;;8.37;99.08
78562;BME280;68963;52.138;5.446;2023-04-09T05:07:20;102682.59;;;8.39;98.98
78562;BME280;68963;52.138;5.446;2023-04-09T05:09:47;102681.88;;;8.37;98.40
78562;BME280;68963;52.138;5.446;2023-04-09T05:12:13;102678.44;;;8.36;98.69
78562;BME280;68963;52.138;5.446;2023-04-09T05:14:40;102683.69;;;8.36;98.69
78562;BME280;68963;52.138;5.446;2023-04-09T05:17:07;102682.75;;;8.37;98.53
78562;BME280;68963;52.138;5.446;2023-04-09T05:19:33;102676.53;;;8.38;98.54
78562;BME280;68963;52.138;5.446;2023-04-09T05:22:00;102683.69;;;8.36;98.33
78562;BME280;68963;52.138;5.446;2023-04-09T05:24:26;102678.31;;;8.38;98.37
78562;BME280;68963;52.138;5.446;2023-04-09T05:26:53;102678.31;;;8.38;98.01
78562;BME280;68963;52.138;5.446;2023-04-09T05:29:19;102685.38;;;8.37;97.85
78562;BME280;68963;52.138;5.446;2023-04-09T05:31:46;102684.53;;;8.37;97.90
78562;BME280;68963;52.138;5.446;2023-04-09T05:34:12;102690.00;;;8.34;97.69
78562;BME280;68963;52.138;5.446;2023-04-09T05:36:39;102689.19;;;8.33;98.00
78562;BME280;68963;52.138;5.446;2023-04-09T05:39:06;102696.09;;;8.34;97.85
78562;BME280;68963;52.138;5.446;2023-04-09T05:41:32;102693.47;;;8.34;97.30
78562;BME280;68963;52.138;5.446;2023-04-09T05:43:59;102698.63;;;8.36;97.23
78562;BME280;68963;52.138;5.446;2023-04-09T05:46:26;102697.75;;;8.35;96.95
78562;BME280;68963;52.138;5.446;2023-04-09T05:48:54;102697.53;;;8.38;96.93
78562;BME280;68963;52.138;5.446;2023-04-09T05:51:20;102693.00;;;8.40;96.68
78562;BME280;68963;52.138;5.446;2023-04-09T05:53:47;102699.09;;;8.41;96.41
78562;BME280;68963;52.138;5.446;2023-04-09T05:56:14;102703.63;;;8.39;96.01
78562;BME280;68963;52.138;5.446;2023-04-09T05:58:41;102703.63;;;8.39;96.22
78562;BME280;68963;52.138;5.446;2023-04-09T06:01:07;102704.59;;;8.38;95.87
78562;BME280;68963;52.138;5.446;2023-04-09T06:03:34;102701.13;;;8.37;96.09
78562;BME280;68963;52.138;5.446;2023-04-09T06:06:00;102702.78;;;8.38;96.35
78562;BME280;68963;52.138;5.446;2023-04-09T06:08:27;102698.50;;;8.37;96.27
78562;BME280;68963;52.138;5.446;2023-04-09T06:10:53;102700.16;;;8.38;96.48
78562;BME280;68963;52.138;5.446;2023-04-09T06:13:20;102703.50;;;8.40;96.43
78562;BME280;68963;52.138;5.446;2023-04-09T06:15:46;102697.88;;;8.45;96.23
78562;BME280;68963;52.138;5.446;2023-04-09T06:18:13;102696.91;;;8.46;95.82
78562;BME280;68963;52.138;5.446;2023-04-09T06:20:40;102705.34;;;8.50;95.71
78562;BME280;68963;52.138;5.446;2023-04-09T06:23:06;102699.28;;;8.49;95.27
78562;BME280;68963;52.138;5.446;2023-04-09T06:25:34;102703.31;;;8.53;95.10
78562;BME280;68963;52.138;5.446;2023-04-09T06:28:01;102709.28;;;8.55;94.67
78562;BME280;68963;52.138;5.446;2023-04-09T06:30:28;102713.41;;;8.58;94.33
78562;BME280;68963;52.138;5.446;2023-04-09T06:32:56;102704.19;;;8.63;94.63
78562;BME280;68963;52.138;5.446;2023-04-09T06:35:22;102715.44;;;8.65;94.77
78562;BME280;68963;52.138;5.446;2023-04-09T06:37:49;102717.66;;;8.70;94.49
78562;BME280;68963;52.138;5.446;2023-04-09T06:40:15;102714.91;;;8.71;94.76
78562;BME280;68963;52.138;5.446;2023-04-09T06:42:42;102719.75;;;8.76;94.81
78562;BME280;68963;52.138;5.446;2023-04-09T06:45:08;102719.63;;;8.78;94.72
78562;BME280;68963;52.138;5.446;2023-04-09T06:47:35;102721.28;;;8.79;95.32
78562;BME280;68963;52.138;5.446;2023-04-09T06:50:02;102729.34;;;8.87;94.87
78562;BME280;68963;52.138;5.446;2023-04-09T06:52:28;102719.16;;;8.93;95.07
78562;BME280;68963;52.138;5.446;2023-04-09T06:54:55;102722.81;;;9.02;94.79
78562;BME280;68963;52.138;5.446;2023-04-09T06:57:21;102718.25;;;9.04;94.82
78562;BME280;68963;52.138;5.446;2023-04-09T06:59:48;102729.34;;;9.08;94.20
78562;BME280;68963;52.138;5.446;2023-04-09T07:02:14;102727.69;;;9.07;93.53
78562;BME280;68963;52.138;5.446;2023-04-09T07:04:41;102721.59;;;9.06;94.12
78562;BME280;68963;52.138;5.446;2023-04-09T07:07:08;102728.94;;;9.12;93.64
78562;BME280;68963;52.138;5.446;2023-04-09T07:09:34;102723.41;;;9.15;91.58
78562;BME280;68963;52.138;5.446;2023-04-09T07:12:01;102728.84;;;9.24;91.91
78562;BME280;68963;52.138;5.446;2023-04-09T07:14:28;102731.88;;;9.59;91.68
78562;BME280;68963;52.138;5.446;2023-04-09T07:16:54;102727.47;;;9.70;90.58
78562;BME280;68963;52.138;5.446;2023-04-09T07:19:21;102725.97;;;9.86;88.46
78562;BME280;68963;52.138;5.446;2023-04-09T07:21:47;102723.47;;;9.75;86.80
78562;BME280;68963;52.138;5.446;2023-04-09T07:24:14;102727.75;;;9.66;87.08
78562;BME280;68963;52.138;5.446;2023-04-09T07:26:40;102728.59;;;9.77;87.65
78562;BME280;68963;52.138;5.446;2023-04-09T07:29:08;102735.41;;;9.89;85.84
78562;BME280;68963;52.138;5.446;2023-04-09T07:31:34;102731.94;;;9.88;83.63
78562;BME280;68963;52.138;5.446;2023-04-09T07:34:01;102737.47;;;9.85;84.19
78562;BME280;68963;52.138;5.446;2023-04-09T07:36:28;102734.00;;;9.85;83.80
78562;BME280;68963;52.138;5.446;2023-04-09T07:38:54;102732.91;;;9.97;82.30
78562;BME280;68963;52.138;5.446;2023-04-09T07:41:21;102746.63;;;9.91;82.32
78562;BME280;68963;52.138;5.446;2023-04-09T07:43:47;102739.16;;;10.15;83.34
78562;BME280;68963;52.138;5.446;2023-04-09T07:46:18;102732.41;;;10.42;83.33
78562;BME280;68963;52.138;5.446;2023-04-09T07:48:45;102734.75;;;10.64;82.72
78562;BME280;68963;52.138;5.446;2023-04-09T07:51:13;102735.13;;;10.70;81.98
78562;BME280;68963;52.138;5.446;2023-04-09T07:53:40;102731.06;;;10.85;81.12
78562;BME280;68963;52.138;5.446;2023-04-09T07:56:07;102735.78;;;10.91;81.21
78562;BME280;68963;52.138;5.446;2023-04-09T07:58:33;102729.03;;;10.69;78.86
78562;BME280;68963;52.138;5.446;2023-04-09T08:01:00;102731.00;;;10.38;80.78
78562;BME280;68963;52.138;5.446;2023-04-09T08:03:26;102727.41;;;10.29;80.08
78562;BME280;68963;52.138;5.446;2023-04-09T08:05:53;102732.13;;;10.26;81.52
78562;BME280;68963;52.138;5.446;2023-04-09T08:08:19;102731.97;;;10.37;81.50
78562;BME280;68963;52.138;5.446;2023-04-09T08:10:47;102725.19;;;10.44;80.69
78562;BME280;68963;52.138;5.446;2023-04-09T08:13:13;102730.34;;;10.46;81.09
78562;BME280;68963;52.138;5.446;2023-04-09T08:15:40;102731.31;;;10.35;80.00
78562;BME280;68963;52.138;5.446;2023-04-09T08:18:06;102732.97;;;10.26;79.66
78562;BME280;68963;52.138;5.446;2023-04-09T08:20:33;102731.59;;;10.32;80.60
78562;BME280;68963;52.138;5.446;2023-04-09T08:23:00;102726.84;;;10.45;81.63
78562;BME280;68963;52.138;5.446;2023-04-09T08:25:27;102724.22;;;10.45;79.98
78562;BME280;68963;52.138;5.446;2023-04-09T08:27:53;102727.16;;;10.42;79.88
78562;BME280;68963;52.138;5.446;2023-04-09T08:30:20;102723.81;;;10.50;80.14
78562;BME280;68963;52.138;5.446;2023-04-09T08:32:46;102728.22;;;10.59;80.25
78562;BME280;68963;52.138;5.446;2023-04-09T08:35:13;102729.19;;;10.58;79.49
78562;BME280;68963;52.138;5.446;2023-04-09T08:37:42;102729.31;;;10.56;78.85
78562;BME280;68963;52.138;5.446;2023-04-09T08:40:09;102733.22;;;10.52;77.73
78562;BME280;68963;52.138;5.446;2023-04-09T08:42:43;102729.06;;;10.50;78.45
78562;BME280;68963;52.138;5.446;2023-04-09T08:45:12;102727.81;;;10.54;78.35
78562;BME280;68963;52.138;5.446;2023-04-09T08:47:40;102722.94;;;10.49;79.09
78562;BME280;68963;52.138;5.446;2023-04-09T08:50:07;102723.78;;;10.59;79.33
78562;BME280;68963;52.138;5.446;2023-04-09T08:52:35;102725.31;;;10.72;78.80
78562;BME280;68963;52.138;5.446;2023-04-09T08:55:02;102728.97;;;10.98;79.88
78562;BME280;68963;52.138;5.446;2023-04-09T08:57:29;102726.78;;;11.21;78.77
78562;BME280;68963;52.138;5.446;2023-04-09T08:59:55;102729.41;;;11.31;78.49
78562;BME280;68963;52.138;5.446;2023-04-09T09:02:24;102716.13;;;11.41;77.91
78562;BME280;68963;52.138;5.446;2023-04-09T09:04:50;102721.13;;;11.44;78.49
78562;BME280;68963;52.138;5.446;2023-04-09T09:07:18;102725.81;;;11.50;75.61
78562;BME280;68963;52.138;5.446;2023-04-09T09:09:59;102714.66;;;11.38;77.03
78562;BME280;68963;52.138;5.446;2023-04-09T09:12:41;102713.66;;;11.39;77.06
78562;BME280;68963;52.138;5.446;2023-04-09T09:15:25;102712.28;;;11.35;76.79
78562;BME280;68963;52.138;5.446;2023-04-09T09:17:54;102710.19;;;11.39;76.94
78562;BME280;68963;52.138;5.446;2023-04-09T09:20:21;102712.63;;;11.50;77.61
78562;BME280;68963;52.138;5.446;2023-04-09T09:22:50;102708.34;;;11.49;77.18
78562;BME280;68963;52.138;5.446;2023-04-09T09:25:20;102708.84;;;11.52;76.97
78562;BME280;68963;52.138;5.446;2023-04-09T09:27:52;102710.78;;;11.60;77.55
78562;BME280;68963;52.138;5.446;2023-04-09T09:30:24;102707.22;;;11.69;75.23
78562;BME280;68963;52.138;5.446;2023-04-09T09:33:11;102705.13;;;11.73;76.41
78562;BME280;68963;52.138;5.446;2023-04-09T09:35:52;102699.25;;;11.79;75.49
78562;BME280;68963;52.138;5.446;2023-04-09T09:38:20;102704.13;;;11.74;75.99
78562;BME280;68963;52.138;5.446;2023-04-09T09:40:47;102695.78;;;11.78;74.68
78562;BME280;68963;52.138;5.446;2023-04-09T09:43:14;102691.44;;;11.87;75.36
78562;BME280;68963;52.138;5.446;2023-04-09T09:45:41;102687.75;;;11.98;75.63
78562;BME280;68963;52.138;5.446;2023-04-09T09:48:10;102685.41;;;11.95;75.09
78562;BME280;68963;52.138;5.446;2023-04-09T09:50:38;102691.44;;;12.05;74.36
78562;BME280;68963;52.138;5.446;2023-04-09T09:53:08;102691.34;;;12.15;74.42
78562;BME280;68963;52.138;5.446;2023-04-09T09:55:40;102686.97;;;12.23;73.55
78562;BME280;68963;52.138;5.446;2023-04-09T09:58:15;102689.44;;;12.25;73.29
78562;BME280;68963;52.138;5.446;2023-04-09T10:00:43;102679.41;;;12.28;72.45
78562;BME280;68963;52.138;5.446;2023-04-09T10:03:26;102684.53;;;12.30;73.41
78562;BME280;68963;52.138;5.446;2023-04-09T10:05:54;102681.75;;;12.31;72.29
78562;BME280;68963;52.138;5.446;2023-04-09T10:08:22;102679.00;;;12.41;71.99
78562;BME280;68963;52.138;5.446;2023-04-09T10:10:50;102681.69;;;12.49;70.74
78562;BME280;68963;52.138;5.446;2023-04-09T10:13:29;102666.66;;;12.50;71.69
78562;BME280;68963;52.138;5.446;2023-04-09T10:15:59;102669.53;;;12.56;72.28
78562;BME280;68963;52.138;5.446;2023-04-09T10:18:26;102662.25;;;12.58;72.25
78562;BME280;68963;52.138;5.446;2023-04-09T10:21:07;102662.72;;;12.54;71.22
78562;BME280;68963;52.138;5.446;2023-04-09T10:23:42;102646.34;;;12.50;71.47
78562;BME280;68963;52.138;5.446;2023-04-09T10:26:10;102647.94;;;12.69;70.50
78562;BME280;68963;52.138;5.446;2023-04-09T10:28:37;102644.38;;;12.78;71.22
78562;BME280;68963;52.138;5.446;2023-04-09T10:31:05;102644.13;;;13.06;71.29
78562;BME280;68963;52.138;5.446;2023-04-09T10:33:32;102639.97;;;13.29;70.23
78562;BME280;68963;52.138;5.446;2023-04-09T10:36:09;102648.44;;;13.41;69.52
78562;BME280;68963;52.138;5.446;2023-04-09T10:38:40;102630.41;;;13.37;68.13
78562;BME280;68963;52.138;5.446;2023-04-09T10:43:40;102622.81;;;13.66;66.34
78562;BME280;68963;52.138;5.446;2023-04-09T10:46:23;102631.91;;;13.64;69.09
78562;BME280;68963;52.138;5.446;2023-04-09T10:49:14;102628.94;;;13.75;67.14
78562;BME280;68963;52.138;5.446;2023-04-09T10:52:08;102615.38;;;13.70;66.16
78562;BME280;68963;52.138;5.446;2023-04-09T10:57:13;102613.88;;;13.67;67.36
78562;BME280;68963;52.138;5.446;2023-04-09T10:59:58;102617.50;;;13.99;65.89
78562;BME280;68963;52.138;5.446;2023-04-09T11:08:06;102604.72;;;14.43;64.30
78562;BME280;68963;52.138;5.446;2023-04-09T11:10:32;102602.88;;;14.52;64.77
78562;BME280;68963;52.138;5.446;2023-04-09T11:12:59;102597.03;;;14.65;61.99
78562;BME280;68963;52.138;5.446;2023-04-09T11:15:26;102590.78;;;14.49;61.26
78562;BME280;68963;52.138;5.446;2023-04-09T11:17:53;102602.88;;;14.52;61.92
78562;BME280;68963;52.138;5.446;2023-04-09T11:20:21;102603.16;;;14.73;62.36
78562;BME280;68963;52.138;5.446;2023-04-09T11:22:50;102595.81;;;14.76;60.08
78562;BME280;68963;52.138;5.446;2023-04-09T11:25:25;102597.13;;;14.80;59.45
78562;BME280;68963;52.138;5.446;2023-04-09T11:27:52;102592.97;;;14.85;59.24
78562;BME280;68963;52.138;5.446;2023-04-09T11:30:19;102587.09;;;14.67;58.60
78562;BME280;68963;52.138;5.446;2023-04-09T11:32:47;102585.69;;;14.79;59.00
78562;BME280;68963;52.138;5.446;2023-04-09T11:35:15;102580.88;;;14.83;58.17
78562;BME280;68963;52.138;5.446;2023-04-09T11:37:43;102583.84;;;14.88;58.14
78562;BME280;68963;52.138;5.446;2023-04-09T11:40:14;102580.63;;;15.01;60.28
78562;BME280;68963;52.138;5.446;2023-04-09T11:42:44;102582.75;;;14.74;58.10
78562;BME280;68963;52.138;5.446;2023-04-09T11:45:11;102589.94;;;14.49;56.79
78562;BME280;68963;52.138;5.446;2023-04-09T11:47:39;102589.25;;;14.47;58.27
78562;BME280;68963;52.138;5.446;2023-04-09T11:50:10;102593.13;;;14.84;58.01
78562;BME280;68963;52.138;5.446;2023-04-09T11:52:37;102600.84;;;15.02;57.42
78562;BME280;68963;52.138;5.446;2023-04-09T11:55:05;102586.09;;;15.30;54.88
78562;BME280;68963;52.138;5.446;2023-04-09T11:57:43;102576.41;;;15.37;55.05
78562;BME280;68963;52.138;5.446;2023-04-09T12:00:14;102582.13;;;15.49;53.93
78562;BME280;68963;52.138;5.446;2023-04-09T12:02:48;102580.53;;;15.63;56.46
78562;BME280;68963;52.138;5.446;2023-04-09T12:05:23;102581.19;;;15.65;54.02
78562;BME280;68963;52.138;5.446;2023-04-09T12:07:51;102568.78;;;15.65;53.93
78562;BME280;68963;52.138;5.446;2023-04-09T12:10:29;102575.59;;;15.98;55.65
78562;BME280;68963;52.138;5.446;2023-04-09T12:13:07;102568.31;;;16.29;55.24
78562;BME280;68963;52.138;5.446;2023-04-09T12:15:39;102565.84;;;16.42;52.55
78562;BME280;68963;52.138;5.446;2023-04-09T12:18:10;102568.50;;;16.42;51.55
78562;BME280;68963;52.138;5.446;2023-04-09T12:20:41;102558.59;;;16.36;50.69
78562;BME280;68963;52.138;5.446;2023-04-09T12:23:10;102570.13;;;15.99;51.01
78562;BME280;68963;52.138;5.446;2023-04-09T12:25:39;102566.31;;;15.79;52.05
78562;BME280;68963;52.138;5.446;2023-04-09T12:28:07;102562.00;;;15.78;51.05
78562;BME280;68963;52.138;5.446;2023-04-09T12:30:34;102549.03;;;15.98;55.77
78562;BME280;68963;52.138;5.446;2023-04-09T12:33:02;102560.44;;;16.36;53.17
78562;BME280;68963;52.138;5.446;2023-04-09T12:35:29;102552.78;;;16.62;52.14
78562;BME280;68963;52.138;5.446;2023-04-09T12:37:56;102559.97;;;16.77;50.73
78562;BME280;68963;52.138;5.446;2023-04-09T12:40:24;102554.41;;;16.93;51.07
78562;BME280;68963;52.138;5.446;2023-04-09T12:42:51;102560.69;;;17.07;51.62
78562;BME280;68963;52.138;5.446;2023-04-09T12:45:18;102547.97;;;17.24;49.69
78562;BME280;68963;52.138;5.446;2023-04-09T12:47:45;102556.34;;;17.21;49.62
78562;BME280;68963;52.138;5.446;2023-04-09T12:50:12;102556.34;;;17.42;50.88
78562;BME280;68963;52.138;5.446;2023-04-09T12:52:40;102551.69;;;17.72;52.17
78562;BME280;68963;52.138;5.446;2023-04-09T12:55:07;102551.19;;;17.83;49.59
78562;BME280;68963;52.138;5.446;2023-04-09T12:57:36;102546.25;;;17.37;49.04
78562;BME280;68963;52.138;5.446;2023-04-09T13:00:03;102552.22;;;17.39;47.74
78562;BME280;68963;52.138;5.446;2023-04-09T13:02:31;102547.13;;;17.66;48.98
78562;BME280;68963;52.138;5.446;2023-04-09T13:04:58;102550.38;;;17.83;46.89
78562;BME280;68963;52.138;5.446;2023-04-09T13:07:25;102555.25;;;17.36;46.45
78562;BME280;68963;52.138;5.446;2023-04-09T13:09:55;102554.13;;;17.46;49.42
78562;BME280;68963;52.138;5.446;2023-04-09T13:12:22;102556.81;;;17.52;48.31
78562;BME280;68963;52.138;5.446;2023-04-09T13:14:51;102543.25;;;17.69;48.20
78562;BME280;68963;52.138;5.446;2023-04-09T13:17:18;102541.69;;;17.31;44.90